sensor_id;sensor_type;location;lat;lon;timestamp;P1;durP1;ratioP1;P2;durP2;ratioP2
70078;SDS011;57451;52.496;13.456;2022-12-29T00:00:17;5.45;;;1.70;;
70078;SDS011;57451;52.496;13.456;2022-12-29T00:02:45;3.67;;;1.50;;
70078;SDS011;57451;52.496;13.456;2022-12-29T00:05:13;5.73;;;1.70;;
70078;SDS011;57451;52.496;13.456;2022-12-29T00:07:41;4.57;;;1.48;;
70078;SDS011;57451;52.496;13.456;2022-12-29T00:10:08;4.05;;;1.50;;
70078;SDS011;57451;52.496;13.456;2022-12-29T00:12:35;4.32;;;1.67;;
70078;SDS011;57451;52.496;13.456;2022-12-29T00:15:21;3.88;;;1.45;;
70078;SDS011;57451;52.496;13.456;2022-12-29T00:18:04;4.77;;;1.60;;
70078;SDS011;57451;52.496;13.456;2022-12-29T00:20:34;3.53;;;1.13;;
70078;SDS011;57451;52.496;13.456;2022-12-29T00:23:20;3.70;;;1.45;;
70078;SDS011;57451;52.496;13.456;2022-12-29T00:26:09;4.57;;;1.83;;
70078;SDS011;57451;52.496;13.456;2022-12-29T00:28:59;4.47;;;1.50;;
70078;SDS011;57451;52.496;13.456;2022-12-29T00:31:45;4.47;;;1.60;;
70078;SDS011;57451;52.496;13.456;2022-12-29T00:34:31;3.63;;;1.48;;
70078;SDS011;57451;52.496;13.456;2022-12-29T00:37:40;3.60;;;1.42;;
70078;SDS011;57451;52.496;13.456;2022-12-29T00:40:31;4.55;;;1.75;;
70078;SDS011;57451;52.496;13.456;2022-12-29T00:43:17;4.55;;;1.70;;
70078;SDS011;57451;52.496;13.456;2022-12-29T00:46:03;3.53;;;1.37;;
70078;SDS011;57451;52.496;13.456;2022-12-29T00:48:31;4.30;;;1.20;;
70078;SDS011;57451;52.496;13.456;2022-12-29T00:51:16;4.95;;;1.50;;
70078;SDS011;57451;52.496;13.456;2022-12-29T00:53:45;4.35;;;1.60;;
70078;SDS011;57451;52.496;13.456;2022-12-29T00:56:12;7.25;;;1.70;;
70078;SDS011;57451;52.496;13.456;2022-12-29T00:58:39;4.30;;;1.40;;
70078;SDS011;57451;52.496;13.456;2022-12-29T01:01:08;4.65;;;1.38;;
70078;SDS011;57451;52.496;13.456;2022-12-29T01:03:36;3.95;;;1.80;;
70078;SDS011;57451;52.496;13.456;2022-12-29T01:06:04;3.67;;;1.48;;
70078;SDS011;57451;52.496;13.456;2022-12-29T01:08:33;3.65;;;1.50;;
70078;SDS011;57451;52.496;13.456;2022-12-29T01:11:03;3.80;;;1.40;;
70078;SDS011;57451;52.496;13.456;2022-12-29T01:13:32;3.50;;;1.35;;
70078;SDS011;57451;52.496;13.456;2022-12-29T01:16:00;4.30;;;1.58;;
70078;SDS011;57451;52.496;13.456;2022-12-29T01:18:28;4.45;;;1.60;;
70078;SDS011;57451;52.496;13.456;2022-12-29T01:20:58;6.18;;;1.48;;
70078;SDS011;57451;52.496;13.456;2022-12-29T01:23:26;3.57;;;1.50;;
70078;SDS011;57451;52.496;13.456;2022-12-29T01:25:55;3.63;;;1.42;;
70078;SDS011;57451;52.496;13.456;2022-12-29T01:28:24;3.60;;;1.40;;
70078;SDS011;57451;52.496;13.456;2022-12-29T01:30:52;4.93;;;1.60;;
70078;SDS011;57451;52.496;13.456;2022-12-29T01:33:19;5.28;;;1.55;;
70078;SDS011;57451;52.496;13.456;2022-12-29T01:35:46;6.00;;;1.53;;
70078;SDS011;57451;52.496;13.456;2022-12-29T01:38:13;4.55;;;1.48;;
70078;SDS011;57451;52.496;13.456;2022-12-29T01:40:44;3.78;;;1.45;;
70078;SDS011;57451;52.496;13.456;2022-12-29T01:43:12;3.53;;;1.50;;
70078;SDS011;57451;52.496;13.456;2022-12-29T01:45:44;4.25;;;1.60;;
70078;SDS011;57451;52.496;13.456;2022-12-29T01:48:17;4.43;;;1.60;;
70078;SDS011;57451;52.496;13.456;2022-12-29T01:50:46;4.00;;;1.50;;
70078;SDS011;57451;52.496;13.456;2022-12-29T01:53:19;4.60;;;1.35;;
70078;SDS011;57451;52.496;13.456;2022-12-29T01:55:51;4.10;;;1.40;;
70078;SDS011;57451;52.496;13.456;2022-12-29T01:58:26;4.35;;;1.60;;
70078;SDS011;57451;52.496;13.456;2022-12-29T02:00:59;4.80;;;1.80;;
70078;SDS011;57451;52.496;13.456;2022-12-29T02:03:27;4.00;;;1.52;;
70078;SDS011;57451;52.496;13.456;2022-12-29T02:05:59;4.13;;;1.50;;
70078;SDS011;57451;52.496;13.456;2022-12-29T02:08:33;5.28;;;1.50;;
70078;SDS011;57451;52.496;13.456;2022-12-29T02:11:00;4.70;;;1.40;;
70078;SDS011;57451;52.496;13.456;2022-12-29T02:13:28;4.77;;;1.70;;
70078;SDS011;57451;52.496;13.456;2022-12-29T02:15:56;4.30;;;1.63;;
70078;SDS011;57451;52.496;13.456;2022-12-29T02:18:40;4.75;;;1.67;;
70078;SDS011;57451;52.496;13.456;2022-12-29T02:21:19;4.05;;;1.50;;
70078;SDS011;57451;52.496;13.456;2022-12-29T02:27:21;5.53;;;1.70;;
70078;SDS011;57451;52.496;13.456;2022-12-29T02:30:07;5.18;;;1.80;;
70078;SDS011;57451;52.496;13.456;2022-12-29T02:32:51;7.13;;;1.70;;
70078;SDS011;57451;52.496;13.456;2022-12-29T02:35:27;3.80;;;1.60;;
70078;SDS011;57451;52.496;13.456;2022-12-29T02:38:02;4.80;;;1.50;;
70078;SDS011;57451;52.496;13.456;2022-12-29T02:40:37;4.03;;;1.33;;
70078;SDS011;57451;52.496;13.456;2022-12-29T02:43:12;3.72;;;1.45;;
70078;SDS011;57451;52.496;13.456;2022-12-29T02:45:47;4.65;;;1.30;;
70078;SDS011;57451;52.496;13.456;2022-12-29T02:48:22;4.30;;;1.35;;
70078;SDS011;57451;52.496;13.456;2022-12-29T02:50:56;4.35;;;1.52;;
70078;SDS011;57451;52.496;13.456;2022-12-29T02:53:27;4.07;;;1.33;;
70078;SDS011;57451;52.496;13.456;2022-12-29T02:56:14;3.70;;;1.60;;
70078;SDS011;57451;52.496;13.456;2022-12-29T02:58:44;4.70;;;1.38;;
70078;SDS011;57451;52.496;13.456;2022-12-29T03:01:16;5.28;;;1.50;;
70078;SDS011;57451;52.496;13.456;2022-12-29T03:03:58;3.92;;;1.60;;
70078;SDS011;57451;52.496;13.456;2022-12-29T03:06:35;4.57;;;1.50;;
70078;SDS011;57451;52.496;13.456;2022-12-29T03:09:11;5.70;;;1.65;;
70078;SDS011;57451;52.496;13.456;2022-12-29T03:11:50;3.78;;;1.27;;
70078;SDS011;57451;52.496;13.456;2022-12-29T03:14:39;3.60;;;1.40;;
70078;SDS011;57451;52.496;13.456;2022-12-29T03:20:19;5.90;;;1.70;;
70078;SDS011;57451;52.496;13.456;2022-12-29T03:22:54;4.25;;;1.50;;
70078;SDS011;57451;52.496;13.456;2022-12-29T03:25:30;3.65;;;1.40;;
70078;SDS011;57451;52.496;13.456;2022-12-29T03:28:03;4.95;;;1.48;;
70078;SDS011;57451;52.496;13.456;2022-12-29T03:30:40;3.72;;;1.40;;
70078;SDS011;57451;52.496;13.456;2022-12-29T03:33:10;4.20;;;1.40;;
70078;SDS011;57451;52.496;13.456;2022-12-29T03:35:42;4.35;;;1.20;;
70078;SDS011;57451;52.496;13.456;2022-12-29T03:38:13;3.35;;;1.40;;
70078;SDS011;57451;52.496;13.456;2022-12-29T03:40:45;3.78;;;1.50;;
70078;SDS011;57451;52.496;13.456;2022-12-29T03:43:16;4.70;;;1.60;;
70078;SDS011;57451;52.496;13.456;2022-12-29T03:45:45;4.67;;;1.37;;
70078;SDS011;57451;52.496;13.456;2022-12-29T03:48:13;4.82;;;1.52;;
70078;SDS011;57451;52.496;13.456;2022-12-29T03:50:42;4.03;;;1.20;;
70078;SDS011;57451;52.496;13.456;2022-12-29T03:53:09;3.78;;;1.52;;
70078;SDS011;57451;52.496;13.456;2022-12-29T03:55:37;5.25;;;1.33;;
70078;SDS011;57451;52.496;13.456;2022-12-29T03:58:05;3.50;;;1.40;;
70078;SDS011;57451;52.496;13.456;2022-12-29T04:00:50;3.63;;;1.50;;
70078;SDS011;57451;52.496;13.456;2022-12-29T04:03:17;3.58;;;1.42;;
70078;SDS011;57451;52.496;13.456;2022-12-29T04:05:46;3.60;;;1.20;;
70078;SDS011;57451;52.496;13.456;2022-12-29T04:08:14;3.63;;;1.40;;
70078;SDS011;57451;52.496;13.456;2022-12-29T04:10:42;4.13;;;1.30;;
70078;SDS011;57451;52.496;13.456;2022-12-29T04:13:09;4.40;;;1.40;;
70078;SDS011;57451;52.496;13.456;2022-12-29T04:15:38;4.43;;;1.63;;
70078;SDS011;57451;52.496;13.456;2022-12-29T04:18:05;4.43;;;1.40;;
70078;SDS011;57451;52.496;13.456;2022-12-29T04:20:33;6.15;;;1.50;;
70078;SDS011;57451;52.496;13.456;2022-12-29T04:23:20;5.53;;;1.67;;
70078;SDS011;57451;52.496;13.456;2022-12-29T04:25:47;4.57;;;1.63;;
70078;SDS011;57451;52.496;13.456;2022-12-29T04:28:15;4.40;;;1.50;;
70078;SDS011;57451;52.496;13.456;2022-12-29T04:31:00;4.38;;;1.70;;
70078;SDS011;57451;52.496;13.456;2022-12-29T04:33:33;4.88;;;1.70;;
70078;SDS011;57451;52.496;13.456;2022-12-29T04:36:01;3.47;;;1.13;;
70078;SDS011;57451;52.496;13.456;2022-12-29T04:38:30;4.55;;;1.40;;
70078;SDS011;57451;52.496;13.456;2022-12-29T04:40:59;3.72;;;1.40;;
70078;SDS011;57451;52.496;13.456;2022-12-29T04:43:28;3.80;;;1.30;;
70078;SDS011;57451;52.496;13.456;2022-12-29T04:46:14;3.85;;;1.20;;
70078;SDS011;57451;52.496;13.456;2022-12-29T04:48:50;3.77;;;1.60;;
70078;SDS011;57451;52.496;13.456;2022-12-29T04:51:43;4.30;;;1.50;;
70078;SDS011;57451;52.496;13.456;2022-12-29T04:54:14;4.50;;;1.38;;
70078;SDS011;57451;52.496;13.456;2022-12-29T04:56:44;3.70;;;1.30;;
70078;SDS011;57451;52.496;13.456;2022-12-29T04:59:14;3.33;;;1.30;;
70078;SDS011;57451;52.496;13.456;2022-12-29T05:01:45;3.30;;;1.37;;
70078;SDS011;57451;52.496;13.456;2022-12-29T05:04:13;3.55;;;1.65;;
70078;SDS011;57451;52.496;13.456;2022-12-29T05:06:42;4.93;;;1.52;;
70078;SDS011;57451;52.496;13.456;2022-12-29T05:09:09;4.95;;;1.55;;
70078;SDS011;57451;52.496;13.456;2022-12-29T05:11:38;4.78;;;1.50;;
70078;SDS011;57451;52.496;13.456;2022-12-29T05:14:05;3.10;;;1.20;;
70078;SDS011;57451;52.496;13.456;2022-12-29T05:16:34;3.67;;;1.50;;
70078;SDS011;57451;52.496;13.456;2022-12-29T05:19:01;5.00;;;1.25;;
70078;SDS011;57451;52.496;13.456;2022-12-29T05:21:30;4.90;;;1.55;;
70078;SDS011;57451;52.496;13.456;2022-12-29T05:23:58;4.13;;;1.65;;
70078;SDS011;57451;52.496;13.456;2022-12-29T05:26:26;5.93;;;1.40;;
70078;SDS011;57451;52.496;13.456;2022-12-29T05:29:23;3.90;;;1.45;;
70078;SDS011;57451;52.496;13.456;2022-12-29T05:31:50;4.47;;;1.50;;
70078;SDS011;57451;52.496;13.456;2022-12-29T05:34:17;5.82;;;1.70;;
70078;SDS011;57451;52.496;13.456;2022-12-29T05:36:45;5.32;;;1.50;;
70078;SDS011;57451;52.496;13.456;2022-12-29T05:39:13;4.07;;;1.60;;
70078;SDS011;57451;52.496;13.456;2022-12-29T05:41:43;3.38;;;1.30;;
70078;SDS011;57451;52.496;13.456;2022-12-29T05:44:30;4.60;;;1.60;;
70078;SDS011;57451;52.496;13.456;2022-12-29T05:47:13;4.00;;;1.42;;
70078;SDS011;57451;52.496;13.456;2022-12-29T05:49:46;4.65;;;1.70;;
70078;SDS011;57451;52.496;13.456;2022-12-29T05:52:21;4.10;;;1.30;;
70078;SDS011;57451;52.496;13.456;2022-12-29T05:54:48;3.50;;;1.27;;
70078;SDS011;57451;52.496;13.456;2022-12-29T05:57:19;3.33;;;1.33;;
70078;SDS011;57451;52.496;13.456;2022-12-29T05:59:55;4.28;;;1.52;;
70078;SDS011;57451;52.496;13.456;2022-12-29T06:02:22;4.03;;;1.60;;
70078;SDS011;57451;52.496;13.456;2022-12-29T06:04:50;4.13;;;1.50;;
70078;SDS011;57451;52.496;13.456;2022-12-29T06:07:17;4.57;;;1.30;;
70078;SDS011;57451;52.496;13.456;2022-12-29T06:09:46;5.00;;;1.20;;
70078;SDS011;57451;52.496;13.456;2022-12-29T06:12:14;4.22;;;1.30;;
70078;SDS011;57451;52.496;13.456;2022-12-29T06:14:43;3.88;;;1.27;;
70078;SDS011;57451;52.496;13.456;2022-12-29T06:17:12;4.77;;;1.70;;
70078;SDS011;57451;52.496;13.456;2022-12-29T06:19:40;3.85;;;1.55;;
70078;SDS011;57451;52.496;13.456;2022-12-29T06:22:07;3.60;;;1.00;;
70078;SDS011;57451;52.496;13.456;2022-12-29T06:24:35;4.45;;;1.58;;
70078;SDS011;57451;52.496;13.456;2022-12-29T06:27:02;4.40;;;1.58;;
70078;SDS011;57451;52.496;13.456;2022-12-29T06:29:31;4.40;;;1.40;;
70078;SDS011;57451;52.496;13.456;2022-12-29T06:31:58;4.10;;;1.38;;
70078;SDS011;57451;52.496;13.456;2022-12-29T06:34:31;3.88;;;1.40;;
70078;SDS011;57451;52.496;13.456;2022-12-29T06:36:58;3.78;;;1.40;;
70078;SDS011;57451;52.496;13.456;2022-12-29T06:39:25;4.85;;;1.33;;
70078;SDS011;57451;52.496;13.456;2022-12-29T06:42:03;5.63;;;1.50;;
70078;SDS011;57451;52.496;13.456;2022-12-29T06:44:46;3.78;;;1.45;;
70078;SDS011;57451;52.496;13.456;2022-12-29T06:47:13;6.50;;;1.50;;
70078;SDS011;57451;52.496;13.456;2022-12-29T06:49:41;4.05;;;1.50;;
70078;SDS011;57451;52.496;13.456;2022-12-29T06:52:09;4.07;;;1.30;;
70078;SDS011;57451;52.496;13.456;2022-12-29T06:54:39;4.57;;;1.43;;
70078;SDS011;57451;52.496;13.456;2022-12-29T06:57:06;3.75;;;1.38;;
70078;SDS011;57451;52.496;13.456;2022-12-29T06:59:33;3.80;;;1.77;;
70078;SDS011;57451;52.496;13.456;2022-12-29T07:02:01;4.65;;;1.40;;
70078;SDS011;57451;52.496;13.456;2022-12-29T07:04:29;4.60;;;1.23;;
70078;SDS011;57451;52.496;13.456;2022-12-29T07:06:57;4.03;;;1.50;;
70078;SDS011;57451;52.496;13.456;2022-12-29T07:09:25;3.60;;;1.13;;
70078;SDS011;57451;52.496;13.456;2022-12-29T07:11:52;5.10;;;1.40;;
70078;SDS011;57451;52.496;13.456;2022-12-29T07:14:19;3.75;;;1.48;;
70078;SDS011;57451;52.496;13.456;2022-12-29T07:16:46;3.75;;;1.38;;
70078;SDS011;57451;52.496;13.456;2022-12-29T07:19:14;3.63;;;1.30;;
70078;SDS011;57451;52.496;13.456;2022-12-29T07:21:41;3.20;;;1.30;;
70078;SDS011;57451;52.496;13.456;2022-12-29T07:24:13;2.90;;;1.38;;
70078;SDS011;57451;52.496;13.456;2022-12-29T07:26:40;4.85;;;1.52;;
70078;SDS011;57451;52.496;13.456;2022-12-29T07:29:08;3.10;;;1.10;;
70078;SDS011;57451;52.496;13.456;2022-12-29T07:31:35;3.70;;;1.33;;
70078;SDS011;57451;52.496;13.456;2022-12-29T07:34:03;3.92;;;1.10;;
70078;SDS011;57451;52.496;13.456;2022-12-29T07:36:30;3.90;;;1.10;;
70078;SDS011;57451;52.496;13.456;2022-12-29T07:39:00;3.85;;;1.30;;
70078;SDS011;57451;52.496;13.456;2022-12-29T07:41:29;4.35;;;1.13;;
70078;SDS011;57451;52.496;13.456;2022-12-29T07:43:58;3.40;;;0.93;;
70078;SDS011;57451;52.496;13.456;2022-12-29T07:46:53;3.50;;;1.10;;
70078;SDS011;57451;52.496;13.456;2022-12-29T07:49:24;2.95;;;1.08;;
70078;SDS011;57451;52.496;13.456;2022-12-29T07:51:52;5.35;;;1.10;;
70078;SDS011;57451;52.496;13.456;2022-12-29T07:54:19;3.28;;;1.20;;
70078;SDS011;57451;52.496;13.456;2022-12-29T07:56:47;3.73;;;1.10;;
70078;SDS011;57451;52.496;13.456;2022-12-29T07:59:15;3.47;;;1.00;;
70078;SDS011;57451;52.496;13.456;2022-12-29T08:01:42;3.70;;;1.10;;
70078;SDS011;57451;52.496;13.456;2022-12-29T08:04:09;3.30;;;1.05;;
70078;SDS011;57451;52.496;13.456;2022-12-29T08:06:36;3.45;;;1.27;;
70078;SDS011;57451;52.496;13.456;2022-12-29T08:09:04;3.70;;;1.20;;
70078;SDS011;57451;52.496;13.456;2022-12-29T08:11:43;2.90;;;1.15;;
70078;SDS011;57451;52.496;13.456;2022-12-29T08:14:12;3.60;;;1.15;;
70078;SDS011;57451;52.496;13.456;2022-12-29T08:16:39;4.38;;;1.35;;
70078;SDS011;57451;52.496;13.456;2022-12-29T08:19:07;4.35;;;1.25;;
70078;SDS011;57451;52.496;13.456;2022-12-29T08:21:36;3.30;;;1.17;;
70078;SDS011;57451;52.496;13.456;2022-12-29T08:24:04;3.50;;;1.20;;
70078;SDS011;57451;52.496;13.456;2022-12-29T08:26:31;4.35;;;1.40;;
70078;SDS011;57451;52.496;13.456;2022-12-29T08:28:59;3.35;;;1.20;;
70078;SDS011;57451;52.496;13.456;2022-12-29T08:31:27;3.10;;;0.98;;
70078;SDS011;57451;52.496;13.456;2022-12-29T08:33:55;3.37;;;1.30;;
70078;SDS011;57451;52.496;13.456;2022-12-29T08:36:22;3.72;;;1.20;;
70078;SDS011;57451;52.496;13.456;2022-12-29T08:38:49;3.30;;;1.35;;
70078;SDS011;57451;52.496;13.456;2022-12-29T08:41:16;3.85;;;1.40;;
70078;SDS011;57451;52.496;13.456;2022-12-29T08:43:45;4.63;;;1.20;;
70078;SDS011;57451;52.496;13.456;2022-12-29T08:46:12;4.23;;;1.30;;
70078;SDS011;57451;52.496;13.456;2022-12-29T08:48:41;4.18;;;1.50;;
70078;SDS011;57451;52.496;13.456;2022-12-29T08:51:08;4.47;;;1.50;;
70078;SDS011;57451;52.496;13.456;2022-12-29T08:53:35;5.00;;;1.60;;
70078;SDS011;57451;52.496;13.456;2022-12-29T08:56:03;5.22;;;1.42;;
70078;SDS011;57451;52.496;13.456;2022-12-29T08:58:41;4.17;;;1.30;;
70078;SDS011;57451;52.496;13.456;2022-12-29T09:01:09;4.40;;;1.33;;
70078;SDS011;57451;52.496;13.456;2022-12-29T09:03:37;3.72;;;1.15;;
70078;SDS011;57451;52.496;13.456;2022-12-29T09:06:25;3.17;;;1.17;;
70078;SDS011;57451;52.496;13.456;2022-12-29T09:08:53;3.10;;;1.20;;
70078;SDS011;57451;52.496;13.456;2022-12-29T09:11:21;3.23;;;1.20;;
70078;SDS011;57451;52.496;13.456;2022-12-29T09:13:50;4.07;;;1.20;;
70078;SDS011;57451;52.496;13.456;2022-12-29T09:16:18;3.80;;;1.38;;
70078;SDS011;57451;52.496;13.456;2022-12-29T09:18:48;4.30;;;1.40;;
70078;SDS011;57451;52.496;13.456;2022-12-29T09:21:15;4.78;;;1.63;;
70078;SDS011;57451;52.496;13.456;2022-12-29T09:23:44;4.77;;;1.40;;
70078;SDS011;57451;52.496;13.456;2022-12-29T09:26:11;3.60;;;1.20;;
70078;SDS011;57451;52.496;13.456;2022-12-29T09:28:38;3.85;;;1.25;;
70078;SDS011;57451;52.496;13.456;2022-12-29T09:31:06;3.10;;;1.10;;
70078;SDS011;57451;52.496;13.456;2022-12-29T09:33:34;3.58;;;1.30;;
70078;SDS011;57451;52.496;13.456;2022-12-29T09:36:01;3.50;;;1.10;;
70078;SDS011;57451;52.496;13.456;2022-12-29T09:38:29;5.25;;;1.25;;
70078;SDS011;57451;52.496;13.456;2022-12-29T09:41:00;4.15;;;1.30;;
70078;SDS011;57451;52.496;13.456;2022-12-29T09:43:42;3.83;;;0.80;;
70078;SDS011;57451;52.496;13.456;2022-12-29T09:46:18;4.68;;;1.23;;
70078;SDS011;57451;52.496;13.456;2022-12-29T09:48:53;4.50;;;1.30;;
70078;SDS011;57451;52.496;13.456;2022-12-29T09:51:28;2.83;;;1.17;;
70078;SDS011;57451;52.496;13.456;2022-12-29T09:53:58;4.35;;;1.20;;
70078;SDS011;57451;52.496;13.456;2022-12-29T09:56:32;3.70;;;1.42;;
70078;SDS011;57451;52.496;13.456;2022-12-29T09:59:00;3.35;;;1.05;;
70078;SDS011;57451;52.496;13.456;2022-12-29T10:01:33;5.37;;;1.27;;
70078;SDS011;57451;52.496;13.456;2022-12-29T10:04:08;3.70;;;1.05;;
70078;SDS011;57451;52.496;13.456;2022-12-29T10:06:37;3.33;;;1.00;;
70078;SDS011;57451;52.496;13.456;2022-12-29T10:09:32;3.60;;;1.23;;
70078;SDS011;57451;52.496;13.456;2022-12-29T10:12:09;3.97;;;1.20;;
70078;SDS011;57451;52.496;13.456;2022-12-29T10:14:50;3.53;;;1.27;;
70078;SDS011;57451;52.496;13.456;2022-12-29T10:17:27;3.40;;;1.10;;
70078;SDS011;57451;52.496;13.456;2022-12-29T10:20:07;3.20;;;1.10;;
70078;SDS011;57451;52.496;13.456;2022-12-29T10:22:51;3.97;;;1.00;;
70078;SDS011;57451;52.496;13.456;2022-12-29T10:25:31;4.50;;;1.42;;
70078;SDS011;57451;52.496;13.456;2022-12-29T10:28:05;2.97;;;1.13;;
70078;SDS011;57451;52.496;13.456;2022-12-29T10:30:42;3.78;;;1.25;;
70078;SDS011;57451;52.496;13.456;2022-12-29T10:33:13;2.40;;;0.80;;
70078;SDS011;57451;52.496;13.456;2022-12-29T10:35:44;3.50;;;1.00;;
70078;SDS011;57451;52.496;13.456;2022-12-29T10:38:15;3.58;;;1.10;;
70078;SDS011;57451;52.496;13.456;2022-12-29T10:40:50;3.67;;;0.87;;
70078;SDS011;57451;52.496;13.456;2022-12-29T10:43:25;3.97;;;1.42;;
70078;SDS011;57451;52.496;13.456;2022-12-29T10:45:54;3.42;;;0.93;;
70078;SDS011;57451;52.496;13.456;2022-12-29T10:48:24;3.58;;;1.15;;
70078;SDS011;57451;52.496;13.456;2022-12-29T10:50:58;4.22;;;1.20;;
70078;SDS011;57451;52.496;13.456;2022-12-29T10:53:30;3.10;;;1.20;;
70078;SDS011;57451;52.496;13.456;2022-12-29T10:56:05;4.00;;;0.95;;
70078;SDS011;57451;52.496;13.456;2022-12-29T10:58:42;4.13;;;1.20;;
70078;SDS011;57451;52.496;13.456;2022-12-29T11:01:15;3.05;;;0.93;;
70078;SDS011;57451;52.496;13.456;2022-12-29T11:06:30;3.10;;;1.00;;
70078;SDS011;57451;52.496;13.456;2022-12-29T11:08:59;3.70;;;0.98;;
70078;SDS011;57451;52.496;13.456;2022-12-29T11:11:35;4.10;;;1.27;;
70078;SDS011;57451;52.496;13.456;2022-12-29T11:14:10;2.95;;;1.00;;
70078;SDS011;57451;52.496;13.456;2022-12-29T11:16:40;3.30;;;0.90;;
70078;SDS011;57451;52.496;13.456;2022-12-29T11:19:19;3.43;;;1.00;;
70078;SDS011;57451;52.496;13.456;2022-12-29T11:21:48;3.22;;;0.95;;
70078;SDS011;57451;52.496;13.456;2022-12-29T11:24:19;3.67;;;0.88;;
70078;SDS011;57451;52.496;13.456;2022-12-29T11:26:49;2.83;;;0.85;;
70078;SDS011;57451;52.496;13.456;2022-12-29T11:29:21;4.25;;;1.10;;
70078;SDS011;57451;52.496;13.456;2022-12-29T11:31:53;2.60;;;0.80;;
70078;SDS011;57451;52.496;13.456;2022-12-29T11:34:22;3.65;;;1.05;;
70078;SDS011;57451;52.496;13.456;2022-12-29T11:36:53;4.28;;;1.17;;
70078;SDS011;57451;52.496;13.456;2022-12-29T11:39:38;2.97;;;1.00;;
70078;SDS011;57451;52.496;13.456;2022-12-29T11:42:12;3.95;;;1.10;;
70078;SDS011;57451;52.496;13.456;2022-12-29T11:44:43;4.83;;;1.10;;
70078;SDS011;57451;52.496;13.456;2022-12-29T11:47:13;3.20;;;1.10;;
70078;SDS011;57451;52.496;13.456;2022-12-29T11:49:50;4.15;;;1.20;;
70078;SDS011;57451;52.496;13.456;2022-12-29T11:52:21;2.22;;;0.70;;
70078;SDS011;57451;52.496;13.456;2022-12-29T11:54:50;2.88;;;0.80;;
70078;SDS011;57451;52.496;13.456;2022-12-29T11:57:18;4.77;;;1.03;;
70078;SDS011;57451;52.496;13.456;2022-12-29T11:59:50;3.80;;;0.80;;
70078;SDS011;57451;52.496;13.456;2022-12-29T12:02:38;3.55;;;1.05;;
70078;SDS011;57451;52.496;13.456;2022-12-29T12:05:11;3.20;;;0.80;;
70078;SDS011;57451;52.496;13.456;2022-12-29T12:07:45;4.25;;;0.90;;
70078;SDS011;57451;52.496;13.456;2022-12-29T12:10:17;3.07;;;0.90;;
70078;SDS011;57451;52.496;13.456;2022-12-29T12:12:51;3.15;;;0.80;;
70078;SDS011;57451;52.496;13.456;2022-12-29T12:15:27;3.35;;;0.80;;
70078;SDS011;57451;52.496;13.456;2022-12-29T12:18:00;3.72;;;0.88;;
70078;SDS011;57451;52.496;13.456;2022-12-29T12:20:34;3.60;;;0.80;;
70078;SDS011;57451;52.496;13.456;2022-12-29T12:23:12;2.67;;;0.73;;
70078;SDS011;57451;52.496;13.456;2022-12-29T12:25:51;3.45;;;0.82;;
70078;SDS011;57451;52.496;13.456;2022-12-29T12:28:30;2.88;;;0.80;;
70078;SDS011;57451;52.496;13.456;2022-12-29T12:31:06;2.90;;;0.80;;
70078;SDS011;57451;52.496;13.456;2022-12-29T12:33:44;2.47;;;0.68;;
70078;SDS011;57451;52.496;13.456;2022-12-29T12:39:18;3.60;;;1.05;;
70078;SDS011;57451;52.496;13.456;2022-12-29T12:41:56;4.68;;;1.35;;
70078;SDS011;57451;52.496;13.456;2022-12-29T12:44:35;3.55;;;1.05;;
70078;SDS011;57451;52.496;13.456;2022-12-29T12:47:30;3.00;;;0.93;;
70078;SDS011;57451;52.496;13.456;2022-12-29T12:53:10;2.92;;;0.80;;
70078;SDS011;57451;52.496;13.456;2022-12-29T12:56:11;3.42;;;1.00;;
70078;SDS011;57451;52.496;13.456;2022-12-29T12:58:53;3.30;;;0.90;;
70078;SDS011;57451;52.496;13.456;2022-12-29T13:01:37;2.70;;;0.75;;
70078;SDS011;57451;52.496;13.456;2022-12-29T13:04:17;3.30;;;0.90;;
70078;SDS011;57451;52.496;13.456;2022-12-29T13:07:03;4.18;;;0.80;;
70078;SDS011;57451;52.496;13.456;2022-12-29T13:09:44;3.47;;;0.82;;
70078;SDS011;57451;52.496;13.456;2022-12-29T13:12:23;3.10;;;1.00;;
70078;SDS011;57451;52.496;13.456;2022-12-29T13:15:02;3.17;;;0.80;;
70078;SDS011;57451;52.496;13.456;2022-12-29T13:17:36;3.23;;;1.03;;
70078;SDS011;57451;52.496;13.456;2022-12-29T13:20:17;3.35;;;0.88;;
70078;SDS011;57451;52.496;13.456;2022-12-29T13:22:50;5.13;;;1.10;;
70078;SDS011;57451;52.496;13.456;2022-12-29T13:25:27;3.95;;;0.93;;
70078;SDS011;57451;52.496;13.456;2022-12-29T13:28:00;5.03;;;1.10;;
70078;SDS011;57451;52.496;13.456;2022-12-29T13:30:33;4.37;;;1.10;;
70078;SDS011;57451;52.496;13.456;2022-12-29T13:33:06;6.07;;;1.02;;
70078;SDS011;57451;52.496;13.456;2022-12-29T13:35:53;3.88;;;1.08;;
70078;SDS011;57451;52.496;13.456;2022-12-29T13:38:25;4.65;;;1.20;;
70078;SDS011;57451;52.496;13.456;2022-12-29T13:40:59;4.28;;;1.15;;
70078;SDS011;57451;52.496;13.456;2022-12-29T13:43:30;3.70;;;1.30;;
70078;SDS011;57451;52.496;13.456;2022-12-29T13:46:02;3.28;;;1.27;;
70078;SDS011;57451;52.496;13.456;2022-12-29T13:48:40;4.05;;;1.20;;
70078;SDS011;57451;52.496;13.456;2022-12-29T13:51:14;3.10;;;1.17;;
70078;SDS011;57451;52.496;13.456;2022-12-29T13:53:54;4.18;;;1.30;;
70078;SDS011;57451;52.496;13.456;2022-12-29T13:56:30;3.57;;;1.10;;
70078;SDS011;57451;52.496;13.456;2022-12-29T13:59:03;3.45;;;1.20;;
70078;SDS011;57451;52.496;13.456;2022-12-29T14:01:45;4.68;;;1.40;;
70078;SDS011;57451;52.496;13.456;2022-12-29T14:04:21;4.25;;;1.20;;
70078;SDS011;57451;52.496;13.456;2022-12-29T14:06:59;3.75;;;1.25;;
70078;SDS011;57451;52.496;13.456;2022-12-29T14:09:34;4.40;;;1.10;;
70078;SDS011;57451;52.496;13.456;2022-12-29T14:12:18;3.42;;;1.02;;
70078;SDS011;57451;52.496;13.456;2022-12-29T14:15:01;4.28;;;1.33;;
70078;SDS011;57451;52.496;13.456;2022-12-29T14:17:42;4.28;;;1.02;;
70078;SDS011;57451;52.496;13.456;2022-12-29T14:20:16;4.05;;;1.20;;
70078;SDS011;57451;52.496;13.456;2022-12-29T14:22:56;2.90;;;1.00;;
70078;SDS011;57451;52.496;13.456;2022-12-29T14:28:22;4.60;;;1.33;;
70078;SDS011;57451;52.496;13.456;2022-12-29T14:30:52;4.35;;;1.33;;
70078;SDS011;57451;52.496;13.456;2022-12-29T14:33:20;3.78;;;1.40;;
70078;SDS011;57451;52.496;13.456;2022-12-29T14:35:49;4.37;;;1.50;;
70078;SDS011;57451;52.496;13.456;2022-12-29T14:38:21;4.47;;;1.50;;
70078;SDS011;57451;52.496;13.456;2022-12-29T14:40:50;5.45;;;1.50;;
70078;SDS011;57451;52.496;13.456;2022-12-29T14:43:20;3.80;;;1.40;;
70078;SDS011;57451;52.496;13.456;2022-12-29T14:45:54;4.80;;;1.50;;
70078;SDS011;57451;52.496;13.456;2022-12-29T14:48:37;4.60;;;1.37;;
70078;SDS011;57451;52.496;13.456;2022-12-29T14:51:18;5.80;;;1.50;;
70078;SDS011;57451;52.496;13.456;2022-12-29T14:53:52;5.13;;;1.77;;
70078;SDS011;57451;52.496;13.456;2022-12-29T14:56:20;4.30;;;1.80;;
70078;SDS011;57451;52.496;13.456;2022-12-29T14:58:53;4.63;;;1.67;;
70078;SDS011;57451;52.496;13.456;2022-12-29T15:01:26;4.87;;;1.90;;
70078;SDS011;57451;52.496;13.456;2022-12-29T15:04:03;4.72;;;1.80;;
70078;SDS011;57451;52.496;13.456;2022-12-29T15:06:40;4.65;;;1.85;;
70078;SDS011;57451;52.496;13.456;2022-12-29T15:09:12;5.32;;;1.88;;
70078;SDS011;57451;52.496;13.456;2022-12-29T15:11:51;4.47;;;1.70;;
70078;SDS011;57451;52.496;13.456;2022-12-29T15:14:34;4.40;;;1.63;;
70078;SDS011;57451;52.496;13.456;2022-12-29T15:17:09;4.93;;;1.90;;
70078;SDS011;57451;52.496;13.456;2022-12-29T15:19:48;4.85;;;1.80;;
70078;SDS011;57451;52.496;13.456;2022-12-29T15:22:15;5.05;;;2.40;;
70078;SDS011;57451;52.496;13.456;2022-12-29T15:24:44;6.53;;;1.88;;